createdAt,value
2022-11-11T00:01:44.517Z,86.50
2022-11-11T00:04:29.710Z,85.70
2022-11-11T00:07:15.250Z,85.30
2022-11-11T00:10:00.528Z,84.78
2022-11-11T00:12:46.136Z,85.73
2022-11-11T00:15:31.824Z,85.97
2022-11-11T00:18:35.734Z,85.89
2022-11-11T00:21:39.482Z,85.55
2022-11-11T00:24:48.461Z,85.63
2022-11-11T00:27:39.412Z,85.30
2022-11-11T00:30:24.997Z,85.00
2022-11-11T00:33:10.432Z,83.80
2022-11-11T00:35:56.146Z,83.91
2022-11-11T00:38:49.663Z,83.93
2022-11-11T00:41:35.146Z,83.85
2022-11-11T00:44:20.418Z,84.82
2022-11-11T00:47:24.453Z,84.51
2022-11-11T00:50:35.024Z,85.09
2022-11-11T00:53:27.310Z,85.03
2022-11-11T00:56:13.424Z,84.86
2022-11-11T00:58:58.855Z,84.08
2022-11-11T01:01:44.211Z,84.85
2022-11-11T01:04:29.358Z,86.12
2022-11-11T01:07:14.774Z,87.52
2022-11-11T01:10:00.428Z,87.52
2022-11-11T01:12:45.902Z,86.87
2022-11-11T01:15:33.779Z,85.79
2022-11-11T01:18:25.330Z,85.40
2022-11-11T01:21:17.156Z,85.00
2022-11-11T01:24:02.849Z,85.24
2022-11-11T01:26:48.236Z,85.98
2022-11-11T01:29:33.860Z,85.22
2022-11-11T01:32:19.306Z,85.77
2022-11-11T01:35:04.656Z,86.87
2022-11-11T01:37:50.434Z,86.78
2022-11-11T01:40:46.764Z,87.48
2022-11-11T01:43:32.743Z,86.61
2022-11-11T01:46:29.216Z,85.19
2022-11-11T01:49:51.462Z,84.74
2022-11-11T01:52:40.524Z,84.41
2022-11-11T01:55:26.864Z,84.95
2022-11-11T01:58:16.510Z,86.37
2022-11-11T02:01:02.685Z,86.63
2022-11-11T02:04:10.444Z,87.29
2022-11-11T02:07:00.972Z,86.00
2022-11-11T02:09:48.437Z,85.63
2022-11-11T02:12:52.593Z,83.78
2022-11-11T02:15:38.678Z,83.82
2022-11-11T02:18:25.521Z,83.57
2022-11-11T02:21:18.948Z,82.41
2022-11-11T02:24:11.445Z,83.44
2022-11-11T02:26:59.151Z,84.56
2022-11-11T02:29:49.054Z,84.91
2022-11-11T02:32:34.021Z,85.07
2022-11-11T02:35:22.566Z,85.53
2022-11-11T02:38:08.976Z,85.55
2022-11-11T02:41:13.280Z,85.54
2022-11-11T02:43:58.839Z,85.97
2022-11-11T02:46:44.228Z,86.03
2022-11-11T02:49:29.604Z,86.74
2022-11-11T02:52:14.919Z,87.60
2022-11-11T02:55:00.688Z,88.27
2022-11-11T02:57:45.936Z,88.85
2022-11-11T03:00:31.116Z,89.74
2022-11-11T03:03:16.744Z,89.82
2022-11-11T03:06:01.870Z,89.25
2022-11-11T03:08:47.477Z,88.50
2022-11-11T03:11:33.777Z,88.49
2022-11-11T03:14:19.200Z,88.32
2022-11-11T03:17:23.033Z,88.66
2022-11-11T03:20:37.554Z,89.49
2022-11-11T03:23:23.271Z,89.02
2022-11-11T03:26:09.238Z,89.15
2022-11-11T03:28:54.674Z,90.01
2022-11-11T03:31:40.606Z,89.53
2022-11-11T03:34:26.145Z,89.61
2022-11-11T03:37:30.530Z,89.62
2022-11-11T03:40:15.875Z,88.56
2022-11-11T03:43:04.815Z,87.58
2022-11-11T03:45:52.166Z,87.32
2022-11-11T03:48:37.752Z,85.83
2022-11-11T03:51:22.780Z,85.67
2022-11-11T03:54:08.215Z,85.05
2022-11-11T03:57:13.871Z,86.96
2022-11-11T03:59:59.617Z,87.97
2022-11-11T04:03:03.442Z,89.57
2022-11-11T04:06:07.310Z,89.23
2022-11-11T04:09:11.389Z,90.35
2022-11-11T04:11:56.411Z,90.57
2022-11-11T04:15:00.084Z,89.74
2022-11-11T04:17:45.806Z,89.77
2022-11-11T04:20:49.718Z,90.45
2022-11-11T04:23:35.235Z,90.43
2022-11-11T04:26:21.434Z,89.87
2022-11-11T04:29:25.209Z,89.38
2022-11-11T04:32:31.489Z,89.01
2022-11-11T04:35:16.908Z,89.55
2022-11-11T04:38:20.777Z,88.72
2022-11-11T04:41:09.012Z,87.94
2022-11-11T04:44:13.040Z,86.55
2022-11-11T04:46:58.633Z,86.72
2022-11-11T04:49:43.706Z,86.35
2022-11-11T04:52:31.441Z,85.82
2022-11-11T04:55:35.616Z,85.72
2022-11-11T04:58:23.251Z,85.80
2022-11-11T05:01:08.259Z,85.89
2022-11-11T05:03:53.668Z,86.61
2022-11-11T05:06:59.703Z,85.63
2022-11-11T05:09:45.290Z,85.95
2022-11-11T05:12:32.865Z,85.84
2022-11-11T05:15:36.529Z,86.29
2022-11-11T05:18:40.416Z,85.75
2022-11-11T05:21:29.813Z,85.57
2022-11-11T05:24:33.651Z,85.55
2022-11-11T05:27:18.843Z,85.40
2022-11-11T05:30:04.785Z,85.41
2022-11-11T05:32:50.449Z,85.89
2022-11-11T05:35:38.042Z,85.60
2022-11-11T05:38:23.392Z,85.05
2022-11-11T05:41:09.564Z,84.83
2022-11-11T05:43:55.347Z,84.95
2022-11-11T05:46:41.058Z,84.36
2022-11-11T05:49:27.204Z,84.93
2022-11-11T05:52:13.837Z,85.38
2022-11-11T05:54:59.379Z,85.69
2022-11-11T05:57:45.030Z,86.01
2022-11-11T06:00:30.633Z,86.64
2022-11-11T06:03:15.847Z,86.48
2022-11-11T06:06:01.370Z,87.16
2022-11-11T06:08:46.832Z,88.35
2022-11-11T06:11:33.095Z,88.10
2022-11-11T06:14:18.732Z,87.57
2022-11-11T06:17:04.406Z,87.45
2022-11-11T06:19:49.559Z,86.90
2022-11-11T06:22:54.515Z,87.67
2022-11-11T06:25:58.659Z,86.94
2022-11-11T06:28:52.505Z,85.91
2022-11-11T06:31:38.049Z,85.86
2022-11-11T06:34:23.324Z,86.27
2022-11-11T06:37:08.924Z,86.03
2022-11-11T06:39:54.252Z,85.59
2022-11-11T06:42:39.692Z,85.22
2022-11-11T06:45:26.958Z,85.33
2022-11-11T06:48:12.605Z,85.56
2022-11-11T06:51:04.312Z,85.43
2022-11-11T06:53:51.046Z,85.37
2022-11-11T06:56:36.523Z,86.06
2022-11-11T06:59:21.793Z,85.99
2022-11-11T07:02:12.650Z,86.82
2022-11-11T07:04:58.177Z,86.91
2022-11-11T07:07:43.344Z,86.91
2022-11-11T07:10:28.829Z,86.89
2022-11-11T07:13:17.365Z,88.93
2022-11-11T07:16:02.412Z,89.86
2022-11-11T07:18:47.781Z,89.16
2022-11-11T07:21:33.168Z,89.64
2022-11-11T07:24:18.304Z,89.33
2022-11-11T07:27:03.798Z,89.22
2022-11-11T07:29:49.411Z,88.65
2022-11-11T07:32:35.545Z,89.41
2022-11-11T07:35:22.128Z,89.66
2022-11-11T07:38:07.525Z,90.02
2022-11-11T07:40:52.939Z,90.08
2022-11-11T07:43:38.280Z,90.41
2022-11-11T07:46:23.896Z,90.69
2022-11-11T07:49:09.326Z,90.30
2022-11-11T07:51:54.836Z,89.97
2022-11-11T07:54:40.181Z,89.88
2022-11-11T07:57:25.875Z,89.46
2022-11-11T08:00:11.741Z,89.91
2022-11-11T08:02:59.048Z,88.86
2022-11-11T08:05:44.771Z,88.56
2022-11-11T08:08:29.993Z,87.85
2022-11-11T08:11:16.720Z,88.28
2022-11-11T08:14:02.643Z,87.79
2022-11-11T08:16:48.227Z,87.25
2022-11-11T08:19:33.510Z,86.74
2022-11-11T08:22:19.101Z,86.89
2022-11-11T08:25:10.662Z,86.59
2022-11-11T08:28:05.082Z,86.35
2022-11-11T08:30:50.225Z,86.61
2022-11-11T08:33:35.580Z,85.78
2022-11-11T08:36:23.840Z,85.02
2022-11-11T08:39:09.979Z,84.88
2022-11-11T08:41:55.403Z,84.98
2022-11-11T08:44:40.932Z,85.15
2022-11-11T08:47:26.910Z,84.48
2022-11-11T08:50:13.557Z,83.94
2022-11-11T08:52:59.190Z,82.95
2022-11-11T08:55:44.550Z,83.06
2022-11-11T08:58:30.896Z,83.61
2022-11-11T09:01:16.422Z,82.77
2022-11-11T09:04:22.959Z,82.57
2022-11-11T09:07:12.241Z,82.66
2022-11-11T09:09:58.215Z,82.96
2022-11-11T09:12:43.658Z,83.17
2022-11-11T09:15:31.161Z,83.07
2022-11-11T09:18:16.779Z,83.01
2022-11-11T09:21:02.250Z,82.34
2022-11-11T09:23:47.499Z,81.66
2022-11-11T09:26:33.036Z,80.99
2022-11-11T09:29:19.210Z,81.43
2022-11-11T09:32:05.491Z,80.42
2022-11-11T09:34:50.996Z,78.63
2022-11-11T09:37:36.661Z,78.60
2022-11-11T09:40:24.325Z,79.76
2022-11-11T09:43:18.870Z,81.64
2022-11-11T09:46:36.410Z,79.49
2022-11-11T09:49:38.719Z,78.59
2022-11-11T09:52:28.023Z,78.31
2022-11-11T09:55:43.158Z,78.66
2022-11-11T09:58:34.491Z,79.72
2022-11-11T10:01:29.550Z,77.85
2022-11-11T10:04:34.736Z,76.08
2022-11-11T10:07:44.898Z,76.18
2022-11-11T10:10:52.811Z,76.88
2022-11-11T10:13:39.298Z,79.09
2022-11-11T10:16:31.147Z,79.01
2022-11-11T10:19:34.850Z,76.26
2022-11-11T10:22:23.150Z,77.09
2022-11-11T10:25:23.830Z,76.50
2022-11-11T10:28:17.526Z,75.05
2022-11-11T10:31:06.455Z,73.61
2022-11-11T10:34:02.608Z,75.34
2022-11-11T10:36:55.390Z,74.37
2022-11-11T10:40:09.449Z,72.81
2022-11-11T10:42:55.723Z,73.56
2022-11-11T10:45:51.306Z,73.57
2022-11-11T10:48:56.106Z,74.64
2022-11-11T10:52:07.854Z,74.21
2022-11-11T10:55:04.933Z,75.07
2022-11-11T10:58:01.197Z,73.68
2022-11-11T11:00:51.792Z,72.54
2022-11-11T11:04:09.489Z,71.43
2022-11-11T11:06:58.297Z,71.20
2022-11-11T11:10:30.687Z,67.88
2022-11-11T11:13:46.491Z,66.11
2022-11-11T11:16:37.271Z,67.74
2022-11-11T11:19:25.658Z,66.07
2022-11-11T11:22:11.072Z,67.51
2022-11-11T11:25:12.714Z,69.12
2022-11-11T11:28:24.652Z,68.73
2022-11-11T11:31:10.673Z,67.78
2022-11-11T11:34:09.758Z,67.83
2022-11-11T11:37:01.998Z,67.87
2022-11-11T11:39:48.432Z,68.79
2022-11-11T11:42:39.479Z,69.68
2022-11-11T11:45:30.088Z,68.87
2022-11-11T11:48:48.138Z,66.16
2022-11-11T11:51:52.575Z,67.00
2022-11-11T11:55:01.529Z,67.37
2022-11-11T11:57:54.537Z,67.75
2022-11-11T12:01:13.449Z,65.91
2022-11-11T12:04:19.205Z,66.06
2022-11-11T12:07:11.414Z,65.28
2022-11-11T12:10:15.712Z,64.96
2022-11-11T12:13:26.212Z,63.79
2022-11-11T12:16:14.911Z,64.13
2022-11-11T12:19:21.807Z,63.16
2022-11-11T12:22:19.077Z,61.75
2022-11-11T12:25:19.799Z,60.54
2022-11-11T12:28:33.315Z,59.77
2022-11-11T12:31:32.484Z,61.36
2022-11-11T12:34:20.667Z,59.25
2022-11-11T12:37:42.343Z,58.60
2022-11-11T12:40:51.697Z,58.57
2022-11-11T12:43:54.423Z,59.44
2022-11-11T12:47:19.945Z,59.14
2022-11-11T12:50:24.267Z,58.07
2022-11-11T12:53:37.040Z,60.76
2022-11-11T12:56:52.412Z,60.49
2022-11-11T12:59:47.668Z,58.26
2022-11-11T13:03:10.749Z,59.07
2022-11-11T13:06:21.585Z,57.52
2022-11-11T13:09:19.470Z,58.75
2022-11-11T13:12:35.654Z,57.78
2022-11-11T13:15:30.312Z,57.82
2022-11-11T13:18:40.958Z,57.79
2022-11-11T13:21:47.205Z,57.65
2022-11-11T13:24:37.900Z,57.94
2022-11-11T13:30:48.481Z,57.56
2022-11-11T13:33:44.305Z,57.53
2022-11-11T13:36:42.125Z,57.84
2022-11-11T13:39:32.693Z,58.21
2022-11-11T13:42:28.318Z,58.84
2022-11-11T13:45:43.516Z,56.75
2022-11-11T13:48:49.154Z,58.54
2022-11-11T13:51:45.380Z,58.92
2022-11-11T13:54:33.934Z,60.50
2022-11-11T14:10:59.536Z,58.16
2022-11-11T14:52:23.272Z,62.27
2022-11-11T14:59:05.813Z,63.14
2022-11-11T15:21:32.196Z,70.25
2022-11-11T15:47:30.430Z,72.60
2022-11-11T15:54:56.451Z,73.10
2022-11-11T16:07:42.379Z,73.82
2022-11-11T16:10:34.239Z,75.06
2022-11-11T16:23:25.790Z,74.56
2022-11-11T16:30:46.083Z,74.56
2022-11-11T16:33:33.432Z,74.93
2022-11-11T16:36:19.043Z,75.17
2022-11-11T16:39:28.260Z,75.33
2022-11-11T16:42:22.845Z,75.64
2022-11-11T16:45:39.964Z,75.47
2022-11-11T16:51:52.932Z,75.74
2022-11-11T16:55:33.159Z,76.37
2022-11-11T16:58:25.781Z,77.21
2022-11-11T17:01:11.926Z,77.23
2022-11-11T17:03:59.500Z,76.84
2022-11-11T17:07:02.169Z,76.81
2022-11-11T17:09:47.909Z,76.83
2022-11-11T17:12:33.334Z,77.30
2022-11-11T17:15:21.546Z,76.93
2022-11-11T17:18:09.404Z,77.63
2022-11-11T17:20:56.392Z,78.41
2022-11-11T17:23:45.511Z,77.27
2022-11-11T17:26:31.903Z,77.42
2022-11-11T17:29:17.200Z,77.73
2022-11-11T17:32:06.550Z,77.84
2022-11-11T17:35:16.771Z,78.16
2022-11-11T17:38:05.079Z,78.15
2022-11-11T17:40:53.145Z,78.15
2022-11-11T17:43:38.290Z,77.92
2022-11-11T17:46:24.019Z,78.08
2022-11-11T17:49:09.690Z,77.49
2022-11-11T17:51:55.734Z,77.09
2022-11-11T17:54:41.161Z,77.13
2022-11-11T17:57:26.699Z,77.48
2022-11-11T18:00:12.889Z,77.36
2022-11-11T18:02:58.833Z,77.79
2022-11-11T18:05:44.392Z,78.83
2022-11-11T18:08:31.182Z,79.05
2022-11-11T18:11:16.818Z,79.05
2022-11-11T18:14:02.716Z,78.88
2022-11-11T18:16:48.196Z,78.55
2022-11-11T18:19:33.668Z,78.31
2022-11-11T18:31:34.388Z,77.97
2022-11-11T18:34:21.202Z,77.61
2022-11-11T18:37:49.496Z,78.28
2022-11-11T18:40:35.462Z,78.35
2022-11-11T18:43:21.067Z,79.39
2022-11-11T18:46:16.395Z,79.68
2022-11-11T18:49:05.976Z,79.44
2022-11-11T18:51:57.365Z,79.54
2022-11-11T18:54:42.933Z,78.75
2022-11-11T18:57:29.094Z,79.36
2022-11-11T19:00:14.635Z,78.96
2022-11-11T19:03:03.168Z,79.21
2022-11-11T19:05:49.157Z,78.57
2022-11-11T19:08:36.025Z,78.73
2022-11-11T19:11:22.289Z,79.55
2022-11-11T19:14:09.224Z,79.44
2022-11-11T19:16:54.524Z,78.88
2022-11-11T19:19:39.952Z,79.48
2022-11-11T19:22:25.795Z,80.56
2022-11-11T19:25:11.623Z,80.03
2022-11-11T19:27:57.633Z,79.85
2022-11-11T19:30:43.850Z,78.85
2022-11-11T19:33:29.645Z,79.06
2022-11-11T19:36:19.031Z,79.29
2022-11-11T19:39:05.124Z,78.94
2022-11-11T19:41:50.858Z,80.04
2022-11-11T19:44:36.563Z,80.05
2022-11-11T19:47:25.395Z,79.85
2022-11-11T19:50:11.825Z,80.95
2022-11-11T19:52:57.551Z,81.40
2022-11-11T19:55:43.343Z,81.17
2022-11-11T19:58:29.606Z,80.43
2022-11-11T20:01:21.211Z,80.25
2022-11-11T20:04:07.093Z,79.71
2022-11-11T20:06:52.334Z,79.56
2022-11-11T20:09:37.838Z,79.79
2022-11-11T20:12:23.577Z,79.37
2022-11-11T20:15:09.759Z,80.68
2022-11-11T20:17:55.598Z,81.09
2022-11-11T20:20:43.913Z,81.24
2022-11-11T20:23:29.924Z,82.06
2022-11-11T20:26:16.989Z,81.98
2022-11-11T20:29:02.563Z,81.51
2022-11-11T20:31:47.796Z,81.60
2022-11-11T20:34:34.437Z,81.74
2022-11-11T20:37:19.815Z,82.34
2022-11-11T20:40:05.859Z,81.81
2022-11-11T20:42:51.372Z,81.91
2022-11-11T20:45:36.557Z,81.40
2022-11-11T20:48:21.859Z,81.65
2022-11-11T20:51:08.373Z,81.88
2022-11-11T20:53:58.840Z,81.54
2022-11-11T20:56:45.592Z,80.85
2022-11-11T20:59:31.488Z,80.89
2022-11-11T21:02:22.856Z,80.89
2022-11-11T21:05:12.636Z,80.77
2022-11-11T21:07:58.370Z,80.16
2022-11-11T21:10:43.849Z,80.01
2022-11-11T21:13:30.490Z,81.54
2022-11-11T21:16:21.856Z,82.28
2022-11-11T21:19:08.226Z,82.21
2022-11-11T21:21:55.008Z,81.63
2022-11-11T21:24:40.446Z,81.08
2022-11-11T21:27:31.393Z,81.18
2022-11-11T21:30:19.622Z,82.08
2022-11-11T21:33:08.231Z,82.12
2022-11-11T21:36:00.490Z,82.28
2022-11-11T21:38:46.420Z,82.55
2022-11-11T21:41:36.490Z,82.38
2022-11-11T21:44:21.495Z,82.24
2022-11-11T21:47:06.826Z,82.31
2022-11-11T21:49:52.234Z,81.86
2022-11-11T21:52:37.496Z,81.54
2022-11-11T21:55:23.273Z,81.27
2022-11-11T21:58:08.685Z,81.73
2022-11-11T22:00:54.229Z,82.62
2022-11-11T22:03:41.779Z,83.08
2022-11-11T22:06:28.204Z,82.45
2022-11-11T22:09:13.541Z,81.80
2022-11-11T22:11:59.096Z,81.86
2022-11-11T22:14:44.292Z,81.14
2022-11-11T22:17:29.658Z,81.42
2022-11-11T22:20:15.181Z,81.50
2022-11-11T22:23:00.817Z,81.33
2022-11-11T22:25:46.510Z,81.69
2022-11-11T22:28:33.862Z,81.69
2022-11-11T22:31:28.163Z,81.23
2022-11-11T22:34:14.748Z,81.44
2022-11-11T22:36:59.829Z,81.04
2022-11-11T22:39:45.430Z,81.35
2022-11-11T22:42:30.988Z,81.05
2022-11-11T22:45:16.584Z,80.74
2022-11-11T22:48:02.044Z,80.75
2022-11-11T22:50:47.310Z,82.10
2022-11-11T22:53:32.723Z,81.95
2022-11-11T22:56:19.859Z,82.48
2022-11-11T22:59:05.419Z,81.76
2022-11-11T23:01:51.276Z,82.07
2022-11-11T23:04:36.581Z,81.69
2022-11-11T23:07:22.201Z,81.57
2022-11-11T23:10:08.128Z,81.36
2022-11-11T23:12:58.508Z,81.17
2022-11-11T23:15:52.564Z,82.94
2022-11-11T23:18:38.703Z,82.44
2022-11-11T23:21:25.854Z,82.70
2022-11-11T23:24:11.366Z,83.96
2022-11-11T23:26:59.970Z,82.28
2022-11-11T23:29:51.167Z,82.43
2022-11-11T23:32:37.661Z,82.72
2022-11-11T23:35:23.397Z,83.17
2022-11-11T23:38:09.104Z,82.82
2022-11-11T23:40:54.839Z,82.27
2022-11-11T23:43:40.453Z,82.71
2022-11-11T23:46:25.748Z,83.56
2022-11-11T23:49:10.711Z,83.33
2022-11-11T23:51:55.958Z,83.07
2022-11-11T23:54:41.432Z,82.37
2022-11-11T23:57:26.815Z,82.10
